Terminal Aerodrome Forecast
Issued by NWS Denver/Boulder, CO

Home | Current Version | Previous Version | Graphics & Text | Print | Product List | Glossary On
Versions: 1 2 3 4 5 6 7 8 9 10 11 12 13 14 15 16 17 18 19 20 21 22 23 24 25 26 27 28 29 30 31 32 33 34 35 36 37 38 39 40 41 42 43 44 45 46 47 48 49 50
000
FTUS45 KBOU 020901 AAA
TAFDEN
TAF AMD
KDEN 020901Z 0209/0312 35009KT P6SM FEW020 SCT040 BKN060
     FM021300 07010KT P6SM VCSH SCT015 OVC025
      TEMPO 0214/0218 5SM -RASN BKN015
     FM021800 06010KT 5SM -RASN SCT012 OVC020
     FM022100 02015G22KT 1SM -SN BR OVC010
     FM030000 02012G19KT 3/4SM -SN BR SCT005 OVC008
     FM030500 35007KT 5SM -SHSN FEW005 SCT015 OVC030=

USA.gov is the U.S. government's official web portal to all federal, state and local government web resources and services.